createdAt,value
2018-01-29T00:00:24.652Z,101298.45
2018-01-29T00:01:31.167Z,101303.63
2018-01-29T00:02:36.909Z,101303.52
2018-01-29T00:03:42.642Z,101305.69
2018-01-29T00:04:48.396Z,101307.06
2018-01-29T00:05:54.176Z,101298.32
2018-01-29T00:07:00.696Z,101300.52
2018-01-29T00:08:06.450Z,101300.55
2018-01-29T00:09:12.188Z,101300.01
2018-01-29T00:10:17.925Z,101301.31
2018-01-29T00:11:23.695Z,101303.96
2018-01-29T00:12:30.932Z,101303.56
2018-01-29T00:13:36.656Z,101301.34
2018-01-29T00:14:43.198Z,101297.37
2018-01-29T00:15:48.939Z,101292.06
2018-01-29T00:16:54.706Z,101299.02
2018-01-29T00:18:00.218Z,101299.78
2018-01-29T00:19:06.384Z,101291.85
2018-01-29T00:20:12.175Z,101293.25
2018-01-29T00:21:18.203Z,101293.96
2018-01-29T00:22:23.975Z,101291.67
2018-01-29T00:23:30.468Z,101292.94
2018-01-29T00:24:36.216Z,101291.51
2018-01-29T00:25:41.962Z,101297.18
2018-01-29T00:26:47.692Z,101291.47
2018-01-29T00:27:53.160Z,101287.72
2018-01-29T00:28:58.911Z,101288.62
2018-01-29T00:30:04.762Z,101293.41
2018-01-29T00:31:12.048Z,101296.50
2018-01-29T00:32:17.978Z,101301.28
2018-01-29T00:33:23.755Z,101293.29
2018-01-29T00:34:30.271Z,101297.59
2018-01-29T00:35:36.067Z,101294.54
2018-01-29T00:36:41.814Z,101296.28
2018-01-29T00:37:47.540Z,101294.17
2018-01-29T00:38:54.079Z,101299.05
2018-01-29T00:40:00.688Z,101289.36
2018-01-29T00:41:06.439Z,101288.91
2018-01-29T00:42:12.296Z,101296.32
2018-01-29T00:43:18.047Z,101291.20
2018-01-29T00:44:24.657Z,101294.13
2018-01-29T00:45:30.059Z,101296.71
2018-01-29T00:46:35.797Z,101299.80
2018-01-29T00:47:41.363Z,101305.52
2018-01-29T00:48:47.848Z,101302.95
2018-01-29T00:49:53.632Z,101299.42
2018-01-29T00:51:00.911Z,101302.04
2018-01-29T00:52:06.316Z,101298.63
2018-01-29T00:53:12.105Z,101298.53
2018-01-29T00:54:18.629Z,101301.97
2018-01-29T00:55:24.407Z,101298.41
2018-01-29T00:56:30.915Z,101302.27
2018-01-29T00:57:36.703Z,101298.78
2018-01-29T00:58:42.580Z,101302.38
2018-01-29T00:59:48.381Z,101305.93
2018-01-29T01:00:54.336Z,101295.89
2018-01-29T01:02:00.066Z,101302.81
2018-01-29T01:03:05.810Z,101305.09
2018-01-29T01:04:13.070Z,101301.69
2018-01-29T01:05:18.850Z,101298.25
2018-01-29T01:06:24.721Z,101295.89
2018-01-29T01:07:31.137Z,101301.52
2018-01-29T01:08:37.132Z,101307.63
2018-01-29T01:09:42.856Z,101304.98
2018-01-29T01:10:48.657Z,101314.61
2018-01-29T01:11:54.285Z,101298.59
2018-01-29T01:13:00.032Z,101311.27
2018-01-29T01:14:05.768Z,101315.55
2018-01-29T01:15:11.508Z,101309.84
2018-01-29T01:16:17.236Z,101307.98
2018-01-29T01:17:23.025Z,101301.42
2018-01-29T01:18:28.815Z,101315.31
2018-01-29T01:19:34.552Z,101310.52
2018-01-29T01:20:39.729Z,101317.14
2018-01-29T01:21:46.239Z,101315.80
2018-01-29T01:22:52.012Z,101319.14
2018-01-29T01:23:58.522Z,101320.00
2018-01-29T01:25:04.042Z,101317.36
2018-01-29T01:26:09.793Z,101322.55
2018-01-29T01:27:15.586Z,101321.61
2018-01-29T01:28:22.113Z,101319.48
2018-01-29T01:29:27.704Z,101315.55
2018-01-29T01:30:34.218Z,101315.91
2018-01-29T01:31:39.976Z,101321.23
2018-01-29T01:32:45.700Z,101322.38
2018-01-29T01:33:51.460Z,101324.55
2018-01-29T01:34:57.295Z,101326.81
2018-01-29T01:36:03.048Z,101326.74
2018-01-29T01:37:08.807Z,101318.73
2018-01-29T01:38:15.361Z,101326.55
2018-01-29T01:39:21.121Z,101320.06
2018-01-29T01:40:27.686Z,101315.75
2018-01-29T01:41:34.203Z,101312.34
2018-01-29T01:42:39.938Z,101308.14
2018-01-29T01:43:45.476Z,101317.20
2018-01-29T01:44:51.266Z,101317.03
2018-01-29T01:45:57.833Z,101312.22
2018-01-29T01:47:03.566Z,101305.20
2018-01-29T01:48:10.129Z,101301.25
2018-01-29T01:49:16.040Z,101293.84
2018-01-29T01:50:21.795Z,101298.66
2018-01-29T01:51:27.548Z,101297.39
2018-01-29T01:52:34.110Z,101300.01
2018-01-29T01:53:40.623Z,101287.85
2018-01-29T01:54:46.367Z,101293.12
2018-01-29T01:55:52.119Z,101287.78
2018-01-29T01:56:57.906Z,101292.20
2018-01-29T01:58:03.652Z,101290.45
2018-01-29T01:59:10.175Z,101290.02
2018-01-29T02:00:15.591Z,101289.25
2018-01-29T02:01:21.351Z,101281.75
2018-01-29T02:02:27.100Z,101284.78
2018-01-29T02:03:32.838Z,101280.79
2018-01-29T02:04:38.581Z,101277.55
2018-01-29T02:05:45.100Z,101281.39
2018-01-29T02:06:50.872Z,101279.98
2018-01-29T02:07:56.659Z,101283.02
2018-01-29T02:09:02.412Z,101274.23
2018-01-29T02:10:08.180Z,101284.17
2018-01-29T02:11:13.900Z,101270.33
2018-01-29T02:12:19.759Z,101279.61
2018-01-29T02:13:25.525Z,101274.64
2018-01-29T02:14:31.291Z,101274.66
2018-01-29T02:15:37.780Z,101267.39
2018-01-29T02:16:43.531Z,101273.40
2018-01-29T02:17:49.312Z,101274.30
2018-01-29T02:18:55.041Z,101276.42
2018-01-29T02:20:00.776Z,101275.16
2018-01-29T02:21:06.543Z,101277.07
2018-01-29T02:22:12.303Z,101270.52
2018-01-29T02:23:18.923Z,101266.60
2018-01-29T02:24:24.658Z,101272.69
2018-01-29T02:25:30.442Z,101263.53
2018-01-29T02:26:36.928Z,101257.05
2018-01-29T02:27:42.671Z,101263.45
2018-01-29T02:28:48.421Z,101261.59
2018-01-29T02:29:54.171Z,101249.72
2018-01-29T02:30:59.919Z,101249.70
2018-01-29T02:32:05.680Z,101242.30
2018-01-29T02:33:12.191Z,101243.61
2018-01-29T02:34:18.006Z,101242.34
2018-01-29T02:35:24.519Z,101243.20
2018-01-29T02:36:30.057Z,101245.36
2018-01-29T02:37:35.615Z,101247.81
2018-01-29T02:38:42.129Z,101240.11
2018-01-29T02:39:47.909Z,101242.34
2018-01-29T02:40:53.659Z,101242.69
2018-01-29T02:42:00.897Z,101238.22
2018-01-29T02:43:06.646Z,101236.16
2018-01-29T02:44:12.397Z,101232.19
2018-01-29T02:45:18.052Z,101226.84
2018-01-29T02:46:23.589Z,101224.15
2018-01-29T02:47:29.344Z,101220.56
2018-01-29T02:48:34.904Z,101220.64
2018-01-29T02:49:40.652Z,101222.43
2018-01-29T02:50:46.256Z,101219.41
2018-01-29T02:51:52.582Z,101211.58
2018-01-29T02:52:58.129Z,101211.66
2018-01-29T02:54:03.669Z,101206.36
2018-01-29T02:55:10.713Z,101198.92
2018-01-29T02:56:16.295Z,101205.02
2018-01-29T02:57:22.601Z,101195.52
2018-01-29T02:58:28.136Z,101197.10
2018-01-29T02:59:32.885Z,101194.05
2018-01-29T03:00:38.608Z,101193.14
2018-01-29T03:01:44.722Z,101187.02
2018-01-29T03:02:50.463Z,101185.17
2018-01-29T03:03:56.103Z,101188.80
2018-01-29T03:05:01.875Z,101186.99
2018-01-29T03:06:07.640Z,101186.81
2018-01-29T03:07:13.388Z,101191.20
2018-01-29T03:08:18.933Z,101191.25
2018-01-29T03:09:24.670Z,101190.37
2018-01-29T03:10:30.835Z,101194.25
2018-01-29T03:11:37.354Z,101187.27
2018-01-29T03:12:43.155Z,101186.73
2018-01-29T03:13:48.879Z,101189.33
2018-01-29T03:14:55.397Z,101196.85
2018-01-29T03:16:01.168Z,101195.03
2018-01-29T03:17:08.402Z,101198.89
2018-01-29T03:18:14.168Z,101197.36
2018-01-29T03:19:20.444Z,101193.55
2018-01-29T03:20:26.173Z,101190.47
2018-01-29T03:21:31.924Z,101190.41
2018-01-29T03:22:37.681Z,101188.10
2018-01-29T03:23:44.214Z,101180.14
2018-01-29T03:24:49.937Z,101170.36
2018-01-29T03:25:55.676Z,101170.20
2018-01-29T03:27:01.422Z,101165.28
2018-01-29T03:28:07.178Z,101156.66
2018-01-29T03:29:12.944Z,101155.87
2018-01-29T03:30:19.460Z,101161.28
2018-01-29T03:31:25.221Z,101159.94
2018-01-29T03:32:30.968Z,101153.41
2018-01-29T03:33:36.688Z,101162.84
2018-01-29T03:34:42.462Z,101158.29
2018-01-29T03:35:48.951Z,101158.72
2018-01-29T03:36:54.687Z,101147.47
2018-01-29T03:38:00.489Z,101141.02
2018-01-29T03:39:05.392Z,101140.61
2018-01-29T03:40:11.160Z,101138.41
2018-01-29T03:41:16.903Z,101138.79
2018-01-29T03:42:23.400Z,101127.87
2018-01-29T03:43:29.151Z,101127.41
2018-01-29T03:44:35.327Z,101130.66
2018-01-29T03:45:41.084Z,101127.65
2018-01-29T03:46:46.812Z,101129.25
2018-01-29T03:47:53.319Z,101119.62
2018-01-29T03:48:59.044Z,101128.00
2018-01-29T03:50:04.611Z,101120.85
2018-01-29T03:51:11.135Z,101114.94
2018-01-29T03:52:16.872Z,101117.63
2018-01-29T03:53:22.618Z,101120.12
2018-01-29T03:54:28.344Z,101111.44
2018-01-29T03:55:34.091Z,101108.90
2018-01-29T03:56:39.868Z,101128.97
2018-01-29T03:57:46.380Z,101115.58
2018-01-29T03:58:52.108Z,101121.01
2018-01-29T03:59:57.885Z,101107.48
2018-01-29T04:01:03.625Z,101120.98
2018-01-29T04:02:09.395Z,101120.08
2018-01-29T04:03:15.634Z,101107.39
2018-01-29T04:04:22.892Z,101108.30
2018-01-29T04:05:28.638Z,101109.61
2018-01-29T04:06:34.423Z,101099.62
2018-01-29T04:07:40.188Z,101110.19
2018-01-29T04:08:45.934Z,101112.89
2018-01-29T04:09:51.676Z,101116.34
2018-01-29T04:10:57.434Z,101101.49
2018-01-29T04:12:03.254Z,101094.10
2018-01-29T04:13:09.035Z,101092.36
2018-01-29T04:14:14.793Z,101088.27
2018-01-29T04:15:20.578Z,101075.50
2018-01-29T04:16:26.338Z,101080.69
2018-01-29T04:17:32.083Z,101080.79
2018-01-29T04:18:37.862Z,101077.14
2018-01-29T04:19:44.375Z,101079.84
2018-01-29T04:20:49.807Z,101074.30
2018-01-29T04:21:55.547Z,101080.58
2018-01-29T04:23:04.220Z,101073.66
2018-01-29T04:24:10.747Z,101083.25
2018-01-29T04:25:16.467Z,101084.56
2018-01-29T04:26:23.113Z,101078.48
2018-01-29T04:27:28.864Z,101089.80
2018-01-29T04:28:34.888Z,101077.60
2018-01-29T04:29:40.647Z,101097.39
2018-01-29T04:30:46.396Z,101094.19
2018-01-29T04:31:52.128Z,101098.05
2018-01-29T04:32:57.876Z,101095.34
2018-01-29T04:34:03.610Z,101091.36
2018-01-29T04:35:10.146Z,101088.23
2018-01-29T04:36:15.883Z,101094.34
2018-01-29T04:37:21.717Z,101096.78
2018-01-29T04:38:28.265Z,101083.27
2018-01-29T04:39:34.850Z,101090.23
2018-01-29T04:40:40.615Z,101081.73
2018-01-29T04:41:46.345Z,101091.28
2018-01-29T04:42:52.347Z,101080.31
2018-01-29T04:43:59.161Z,101085.89
2018-01-29T04:45:04.718Z,101083.13
2018-01-29T04:46:13.660Z,101090.34
2018-01-29T04:47:19.998Z,101082.36
2018-01-29T04:48:25.728Z,101079.42
2018-01-29T04:49:31.452Z,101078.09
2018-01-29T04:50:37.215Z,101083.76
2018-01-29T04:51:42.834Z,101072.84
2018-01-29T04:52:48.399Z,101077.63
2018-01-29T04:53:54.195Z,101074.45
2018-01-29T04:54:59.968Z,101087.53
2018-01-29T04:56:05.692Z,101076.00
2018-01-29T04:57:11.466Z,101087.33
2018-01-29T04:58:17.238Z,101082.38
2018-01-29T04:59:23.732Z,101077.08
2018-01-29T05:00:28.810Z,101083.16
2018-01-29T05:01:36.084Z,101080.90
2018-01-29T05:02:41.835Z,101082.21
2018-01-29T05:03:47.581Z,101089.17
2018-01-29T05:04:53.334Z,101083.02
2018-01-29T05:05:59.850Z,101082.32
2018-01-29T05:07:05.725Z,101087.59
2018-01-29T05:08:12.253Z,101095.87
2018-01-29T05:09:17.976Z,101093.52
2018-01-29T05:10:23.794Z,101090.70
2018-01-29T05:11:29.538Z,101093.89
2018-01-29T05:12:35.282Z,101092.49
2018-01-29T05:13:41.128Z,101089.42
2018-01-29T05:14:47.059Z,101099.86
2018-01-29T05:15:53.551Z,101095.34
2018-01-29T05:16:59.275Z,101091.80
2018-01-29T05:18:04.441Z,101091.77
2018-01-29T05:19:10.281Z,101091.42
2018-01-29T05:20:16.188Z,101087.46
2018-01-29T05:21:21.912Z,101102.70
2018-01-29T05:22:28.456Z,101088.13
2018-01-29T05:23:34.202Z,101085.51
2018-01-29T05:24:40.721Z,101091.40
2018-01-29T05:25:46.683Z,101080.83
2018-01-29T05:26:52.414Z,101083.07
2018-01-29T05:27:58.148Z,101088.45
2018-01-29T05:29:03.901Z,101076.05
2018-01-29T05:30:09.675Z,101077.42
2018-01-29T05:31:15.448Z,101089.80
2018-01-29T05:32:21.170Z,101079.99
2018-01-29T05:33:27.698Z,101082.16
2018-01-29T05:34:34.766Z,101079.00
2018-01-29T05:39:07.425Z,101067.83
2018-01-29T05:40:13.148Z,101067.94
2018-01-29T05:41:18.723Z,101063.60
2018-01-29T05:42:24.263Z,101066.25
2018-01-29T05:43:30.164Z,101063.60
2018-01-29T05:44:35.813Z,101063.92
2018-01-29T05:45:41.637Z,101057.36
2018-01-29T05:46:48.217Z,101065.74
2018-01-29T05:47:53.615Z,101068.61
2018-01-29T05:48:59.147Z,101065.13
2018-01-29T05:50:05.478Z,101067.46
2018-01-29T05:51:10.494Z,101062.61
2018-01-29T05:52:16.073Z,101063.44
2018-01-29T05:53:22.580Z,101058.92
2018-01-29T05:54:28.112Z,101060.00
2018-01-29T05:55:33.862Z,101061.89
2018-01-29T05:56:39.443Z,101073.64
2018-01-29T05:57:45.459Z,101065.72
2018-01-29T05:58:51.189Z,101067.41
2018-01-29T05:59:56.927Z,101056.05
2018-01-29T06:01:02.648Z,101066.66
2018-01-29T06:02:08.384Z,101060.55
2018-01-29T06:03:14.140Z,101057.09
2018-01-29T06:04:19.677Z,101059.66
2018-01-29T06:05:25.216Z,101053.05
2018-01-29T06:06:30.959Z,101054.07
2018-01-29T06:07:36.700Z,101055.75
2018-01-29T06:08:42.473Z,101047.11
2018-01-29T06:09:48.245Z,101050.67
2018-01-29T06:10:54.728Z,101047.19
2018-01-29T06:12:00.456Z,101049.95
2018-01-29T06:13:06.188Z,101057.02
2018-01-29T06:14:12.151Z,101052.12
2018-01-29T06:15:17.917Z,101055.44
2018-01-29T06:16:23.638Z,101055.70
2018-01-29T06:17:29.378Z,101051.84
2018-01-29T06:18:35.175Z,101056.23
2018-01-29T06:19:40.943Z,101060.63
2018-01-29T06:20:46.676Z,101057.84
2018-01-29T06:21:53.169Z,101060.90
2018-01-29T06:22:58.901Z,101057.23
2018-01-29T06:24:04.647Z,101050.44
2018-01-29T06:25:10.400Z,101046.36
2018-01-29T06:26:16.147Z,101053.92
2018-01-29T06:27:21.681Z,101044.84
2018-01-29T06:28:27.431Z,101047.89
2018-01-29T06:29:33.184Z,101051.00
2018-01-29T06:30:38.947Z,101049.61
2018-01-29T06:31:44.814Z,101049.07
2018-01-29T06:32:51.108Z,101048.95
2018-01-29T06:33:56.856Z,101043.33
2018-01-29T06:35:02.601Z,101043.73
2018-01-29T06:36:08.365Z,101047.13
2018-01-29T06:37:14.476Z,101046.08
2018-01-29T06:38:20.209Z,101049.12
2018-01-29T06:39:25.944Z,101049.93
2018-01-29T06:40:31.392Z,101050.72
2018-01-29T06:41:37.158Z,101049.09
2018-01-29T06:42:42.896Z,101053.83
2018-01-29T06:43:48.638Z,101039.77
2018-01-29T06:44:54.361Z,101036.14
2018-01-29T06:46:00.089Z,101042.33
2018-01-29T06:47:05.837Z,101052.75
2018-01-29T06:48:11.567Z,101038.77
2018-01-29T06:49:17.308Z,101042.27
2018-01-29T06:50:23.037Z,101037.97
2018-01-29T06:51:28.764Z,101034.80
2018-01-29T06:52:35.024Z,101037.94
2018-01-29T06:53:40.576Z,101037.28
2018-01-29T06:54:46.311Z,101038.22
2018-01-29T06:55:52.050Z,101035.45
2018-01-29T06:56:57.767Z,101036.77
2018-01-29T06:58:04.303Z,101032.59
2018-01-29T06:59:11.619Z,101034.98
2018-01-29T07:00:18.116Z,101027.80
2018-01-29T07:01:23.205Z,101035.59
2018-01-29T07:02:28.970Z,101035.45
2018-01-29T07:03:34.729Z,101043.92
2018-01-29T07:04:40.492Z,101044.52
2018-01-29T07:05:46.231Z,101042.75
2018-01-29T07:06:51.988Z,101045.91
2018-01-29T07:07:57.733Z,101045.56
2018-01-29T07:09:03.850Z,101049.87
2018-01-29T07:10:09.576Z,101046.25
2018-01-29T07:11:15.315Z,101053.67
2018-01-29T07:12:21.076Z,101045.80
2018-01-29T07:13:26.796Z,101050.67
2018-01-29T07:14:32.544Z,101055.52
2018-01-29T07:15:38.345Z,101048.95
2018-01-29T07:16:44.847Z,101051.55
2018-01-29T07:17:50.575Z,101054.07
2018-01-29T07:18:56.102Z,101054.92
2018-01-29T07:20:01.904Z,101056.19
2018-01-29T07:21:09.142Z,101051.39
2018-01-29T07:22:14.868Z,101055.67
2018-01-29T07:23:20.590Z,101056.42
2018-01-29T07:24:25.999Z,101049.33
2018-01-29T07:25:32.538Z,101051.00
2018-01-29T07:26:38.307Z,101053.72
2018-01-29T07:27:44.804Z,101047.23
2018-01-29T07:28:50.547Z,101046.59
2018-01-29T07:29:56.276Z,101048.38
2018-01-29T07:31:02.048Z,101046.19
2018-01-29T07:32:07.782Z,101050.14
2018-01-29T07:33:13.560Z,101046.56
2018-01-29T07:34:19.477Z,101049.34
2018-01-29T07:35:25.272Z,101042.63
2018-01-29T07:36:31.803Z,101043.83
2018-01-29T07:37:37.576Z,101051.19
2018-01-29T07:38:43.312Z,101050.81
2018-01-29T07:39:49.598Z,101051.23
2018-01-29T07:40:55.353Z,101056.55
2018-01-29T07:42:01.154Z,101050.38
2018-01-29T07:43:07.513Z,101052.66
2018-01-29T07:44:13.307Z,101051.67
2018-01-29T07:45:18.719Z,101045.53
2018-01-29T07:46:24.462Z,101054.46
2018-01-29T07:47:30.230Z,101048.33
2018-01-29T07:48:35.783Z,101052.92
2018-01-29T07:49:41.531Z,101055.09
2018-01-29T07:50:48.037Z,101057.86
2018-01-29T07:51:53.756Z,101052.95
2018-01-29T07:52:59.533Z,101057.16
2018-01-29T07:54:05.665Z,101054.53
2018-01-29T07:55:11.407Z,101049.20
2018-01-29T07:56:17.156Z,101052.70
2018-01-29T07:57:22.903Z,101060.55
2018-01-29T07:58:28.867Z,101050.48
2018-01-29T07:59:34.616Z,101048.69
2018-01-29T08:00:40.340Z,101047.40
2018-01-29T08:01:46.074Z,101047.48
2018-01-29T08:02:51.862Z,101037.46
2018-01-29T08:03:57.832Z,101042.40
2018-01-29T08:05:03.248Z,101044.03
2018-01-29T08:06:09.758Z,101046.71
2018-01-29T08:07:15.504Z,101044.17
2018-01-29T08:08:21.255Z,101046.71
2018-01-29T08:09:27.024Z,101047.08
2018-01-29T08:10:33.514Z,101048.84
2018-01-29T08:11:39.262Z,101057.21
2018-01-29T08:12:45.004Z,101043.55
2018-01-29T08:13:50.743Z,101047.88
2018-01-29T08:14:56.511Z,101034.88
2018-01-29T08:16:02.263Z,101037.41
2018-01-29T08:17:08.036Z,101028.57
2018-01-29T08:18:13.858Z,101029.08
2018-01-29T08:19:19.611Z,101027.25
2018-01-29T08:20:26.161Z,101022.80
2018-01-29T08:21:31.906Z,101035.64
2018-01-29T08:22:38.415Z,101021.61
2018-01-29T08:23:44.142Z,101028.97
2018-01-29T08:24:49.860Z,101031.13
2018-01-29T08:25:56.372Z,101024.74
2018-01-29T08:27:02.093Z,101027.52
2018-01-29T08:28:07.835Z,101027.52
2018-01-29T08:29:13.574Z,101020.03
2018-01-29T08:30:19.471Z,101023.06
2018-01-29T08:31:25.222Z,101024.37
2018-01-29T08:32:31.797Z,101029.97
2018-01-29T08:33:38.300Z,101024.42
2018-01-29T08:34:44.039Z,101022.17
2018-01-29T08:35:49.805Z,101019.23
2018-01-29T08:36:55.578Z,101028.62
2018-01-29T08:38:01.350Z,101024.77
2018-01-29T08:39:06.746Z,101034.79
2018-01-29T08:40:13.286Z,101024.25
2018-01-29T08:41:19.343Z,101028.17
2018-01-29T08:42:25.100Z,101029.02
2018-01-29T08:43:31.616Z,101027.20
2018-01-29T08:44:37.350Z,101028.30
2018-01-29T08:45:42.924Z,101029.16
2018-01-29T08:46:49.264Z,101031.73
2018-01-29T08:47:55.040Z,101029.39
2018-01-29T08:49:01.558Z,101026.70
2018-01-29T08:50:07.315Z,101033.73
2018-01-29T08:51:13.064Z,101027.11
2018-01-29T08:52:19.602Z,101026.13
2018-01-29T08:53:25.223Z,101031.36
2018-01-29T08:54:30.955Z,101026.56
2018-01-29T08:55:36.707Z,101020.94
2018-01-29T08:56:42.438Z,101024.79
2018-01-29T08:57:48.157Z,101024.79
2018-01-29T08:58:53.951Z,101019.79
2018-01-29T08:59:59.707Z,101021.53
2018-01-29T09:01:05.882Z,101014.75
2018-01-29T09:02:11.627Z,101014.45
2018-01-29T09:03:17.386Z,101014.27
2018-01-29T09:04:23.156Z,101008.47
2018-01-29T09:05:28.898Z,100997.10
2018-01-29T09:06:34.683Z,101002.94
2018-01-29T09:07:41.172Z,100994.96
2018-01-29T09:08:46.953Z,100995.84
2018-01-29T09:09:52.752Z,100993.19
2018-01-29T09:10:58.505Z,100989.13
2018-01-29T09:12:03.745Z,100994.27
2018-01-29T09:13:09.501Z,100993.44
2018-01-29T09:14:15.283Z,100989.31
2018-01-29T09:15:21.839Z,100987.88
2018-01-29T09:16:28.339Z,100990.33
2018-01-29T09:17:33.885Z,100986.11
2018-01-29T09:18:39.621Z,100978.74
2018-01-29T09:19:45.362Z,100979.20
2018-01-29T09:20:50.225Z,100978.00
2018-01-29T09:21:56.717Z,100975.06
2018-01-29T09:23:02.457Z,100984.75
2018-01-29T09:24:08.181Z,100978.69
2018-01-29T09:25:13.963Z,100984.31
2018-01-29T09:26:19.744Z,100971.95
2018-01-29T09:27:25.469Z,100972.65
2018-01-29T09:28:31.222Z,100977.11
2018-01-29T09:29:36.940Z,100977.05
2018-01-29T09:30:42.727Z,100973.47
2018-01-29T09:31:49.288Z,100972.44
2018-01-29T09:32:55.812Z,100971.59
2018-01-29T09:34:01.558Z,100974.16
2018-01-29T09:35:07.317Z,100971.70
2018-01-29T09:36:13.660Z,100969.40
2018-01-29T09:37:20.189Z,100975.28
2018-01-29T09:38:25.954Z,100967.88
2018-01-29T09:39:31.421Z,100988.62
2018-01-29T09:40:37.953Z,100968.73
2018-01-29T09:41:44.465Z,100970.91
2018-01-29T09:42:49.933Z,100975.86
2018-01-29T09:43:55.661Z,100968.38
2018-01-29T09:45:01.401Z,100967.23
2018-01-29T09:46:07.132Z,100972.79
2018-01-29T09:47:12.887Z,100967.95
2018-01-29T09:48:18.596Z,100968.48
2018-01-29T09:49:24.959Z,100967.89
2018-01-29T09:50:30.500Z,100975.87
2018-01-29T09:51:36.247Z,100963.38
2018-01-29T09:52:41.998Z,100967.48
2018-01-29T09:53:48.017Z,100978.89
2018-01-29T09:54:54.340Z,100967.40
2018-01-29T09:56:00.075Z,100971.93
2018-01-29T09:57:05.820Z,100967.81
2018-01-29T09:58:11.566Z,100967.69
2018-01-29T09:59:17.327Z,100976.64
2018-01-29T10:00:23.837Z,100974.38
2018-01-29T10:01:29.587Z,100974.60
2018-01-29T10:02:35.370Z,100970.62
2018-01-29T10:03:41.877Z,100972.41
2018-01-29T10:04:47.637Z,100969.28
2018-01-29T10:05:53.198Z,100966.33
2018-01-29T10:06:58.928Z,100967.08
2018-01-29T10:08:04.507Z,100970.17
2018-01-29T10:09:10.281Z,100967.24
2018-01-29T10:10:15.600Z,100963.56
2018-01-29T10:11:22.151Z,100966.85
2018-01-29T10:12:28.470Z,100964.09
2018-01-29T10:13:34.242Z,100965.14
2018-01-29T10:14:40.155Z,100959.13
2018-01-29T10:15:45.900Z,100954.65
2018-01-29T10:16:51.646Z,100953.76
2018-01-29T10:17:57.380Z,100961.81
2018-01-29T10:19:03.113Z,100963.22
2018-01-29T10:20:08.841Z,100953.55
2018-01-29T10:21:14.611Z,100945.03
2018-01-29T10:22:20.353Z,100947.83
2018-01-29T10:23:26.132Z,100952.20
2018-01-29T10:24:32.630Z,100956.94
2018-01-29T10:25:37.813Z,100943.88
2018-01-29T10:26:43.603Z,100941.64
2018-01-29T10:27:49.335Z,100938.33
2018-01-29T10:28:55.079Z,100942.37
2018-01-29T10:29:59.951Z,100932.30
2018-01-29T10:31:06.446Z,100940.04
2018-01-29T10:32:12.232Z,100939.35
2018-01-29T10:33:18.735Z,100938.86
2018-01-29T10:34:24.489Z,100944.62
2018-01-29T10:35:30.227Z,100943.92
2018-01-29T10:36:35.960Z,100935.05
2018-01-29T10:37:41.733Z,100932.71
2018-01-29T10:38:47.295Z,100925.84
2018-01-29T10:39:53.034Z,100926.76
2018-01-29T10:40:58.783Z,100925.08
2018-01-29T10:42:04.542Z,100923.80
2018-01-29T10:43:11.084Z,100928.87
2018-01-29T10:44:16.819Z,100924.06
2018-01-29T10:45:23.513Z,100921.30
2018-01-29T10:46:29.240Z,100920.02
2018-01-29T10:47:35.760Z,100908.08
2018-01-29T10:48:41.535Z,100912.75
2018-01-29T10:49:47.275Z,100916.37
2018-01-29T10:50:53.000Z,100914.42
2018-01-29T10:51:58.724Z,100908.37
2018-01-29T10:53:04.452Z,100908.02
2018-01-29T10:54:10.208Z,100907.30
2018-01-29T10:55:15.963Z,100897.63
2018-01-29T10:56:20.820Z,100905.95
2018-01-29T10:57:27.368Z,100898.09
2018-01-29T10:58:33.128Z,100906.14
2018-01-29T10:59:39.004Z,100894.86
2018-01-29T11:00:50.115Z,100895.65
2018-01-29T11:02:01.306Z,100899.73
2018-01-29T11:03:07.046Z,100894.76
2018-01-29T11:04:13.563Z,100887.19
2018-01-29T11:05:19.109Z,100886.30
2018-01-29T11:06:24.863Z,100893.05
2018-01-29T11:07:30.607Z,100891.70
2018-01-29T11:08:36.619Z,100886.57
2018-01-29T11:10:45.802Z,100876.77
2018-01-29T11:11:51.560Z,100884.23
2018-01-29T11:12:58.071Z,100877.05
2018-01-29T11:14:03.828Z,100870.59
2018-01-29T11:15:09.568Z,100868.71
2018-01-29T11:16:15.354Z,100865.16
2018-01-29T11:17:21.143Z,100867.99
2018-01-29T11:18:26.928Z,100865.94
2018-01-29T11:20:38.077Z,100868.50
2018-01-29T11:21:44.672Z,100863.03
2018-01-29T11:22:50.414Z,100861.16
2018-01-29T11:23:56.164Z,100867.50
2018-01-29T11:25:02.147Z,100855.52
2018-01-29T11:26:07.887Z,100857.47
2018-01-29T11:27:13.642Z,100858.47
2018-01-29T11:28:19.211Z,100858.80
2018-01-29T11:29:25.096Z,100865.66
2018-01-29T11:30:29.958Z,100864.67
2018-01-29T11:31:36.463Z,100863.20
2018-01-29T11:32:42.258Z,100853.17
2018-01-29T11:33:47.986Z,100850.61
2018-01-29T11:34:53.752Z,100850.89
2018-01-29T11:36:00.263Z,100847.36
2018-01-29T11:37:06.019Z,100847.61
2018-01-29T11:38:11.587Z,100843.63
2018-01-29T11:39:18.090Z,100842.59
2018-01-29T11:40:22.985Z,100842.84
2018-01-29T11:41:28.712Z,100836.55
2018-01-29T11:42:35.216Z,100839.36
2018-01-29T11:43:41.000Z,100840.50
2018-01-29T11:44:46.752Z,100837.05
2018-01-29T11:45:52.496Z,100839.50
2018-01-29T11:46:58.274Z,100834.16
2018-01-29T11:48:04.087Z,100840.31
2018-01-29T11:49:09.849Z,100844.02
2018-01-29T11:50:16.645Z,100836.12
2018-01-29T11:51:22.373Z,100832.48
2018-01-29T11:52:28.439Z,100839.83
2018-01-29T11:53:34.484Z,100833.63
2018-01-29T11:54:40.272Z,100831.56
2018-01-29T11:55:46.058Z,100830.61
2018-01-29T11:56:51.803Z,100829.54
2018-01-29T11:57:57.535Z,100822.34
2018-01-29T11:59:04.086Z,100823.70
2018-01-29T12:00:10.155Z,100822.23
2018-01-29T12:01:15.898Z,100818.39
2018-01-29T12:02:21.952Z,100823.55
2018-01-29T12:03:27.703Z,100821.06
2018-01-29T12:04:33.429Z,100812.19
2018-01-29T12:05:39.208Z,100814.81
2018-01-29T12:06:44.952Z,100809.73
2018-01-29T12:07:52.180Z,100799.19
2018-01-29T12:08:57.936Z,100797.30
2018-01-29T12:10:03.661Z,100796.66
2018-01-29T12:11:09.457Z,100801.28
2018-01-29T12:12:15.275Z,100801.07
2018-01-29T12:13:20.784Z,100786.66
2018-01-29T12:14:26.539Z,100783.72
2018-01-29T12:15:32.303Z,100792.79
2018-01-29T12:16:38.074Z,100781.00
2018-01-29T12:17:44.574Z,100773.59
2018-01-29T12:18:50.325Z,100774.55
2018-01-29T12:19:56.083Z,100769.72
2018-01-29T12:21:01.902Z,100769.49
2018-01-29T12:22:07.669Z,100766.13
2018-01-29T12:23:13.418Z,100771.92
2018-01-29T12:24:19.481Z,100764.75
2018-01-29T12:25:26.013Z,100772.58
2018-01-29T12:26:31.748Z,100766.50
2018-01-29T12:27:37.528Z,100766.53
2018-01-29T12:28:43.279Z,100764.91
2018-01-29T12:29:49.864Z,100766.37
2018-01-29T12:30:55.617Z,100763.22
2018-01-29T12:32:01.795Z,100756.81
2018-01-29T12:33:07.651Z,100761.36
2018-01-29T12:34:13.501Z,100758.03
2018-01-29T12:35:19.221Z,100753.33
2018-01-29T12:36:24.754Z,100753.64
2018-01-29T12:37:30.498Z,100760.72